Fernley, Nevada
Current Conditions -  °F | °C
As of 3:55 AM on Monday 26 Jan 2015 (Local Time) from KRNO Reporting Station
Scattered Clouds Scattered Clouds  
Wind Chill: 33°   Ceiling: Unl
Heat Index: 33°   Visibility: 10mi
Dew Point: 25°   Wind: 0mph
Humidity: 72%   Direction: NA
Pressure: 30.27"   Gusts: NA
Location:  39.6°N, 119.24°W
Report Text: KRNO 261155Z 00000KT 10SM SCT250 01/M04 A3027 RMK AO2 SLP237 T00061039 10061 21011 56007
Loading
Personal Weather Stations






























Interactive Weather Map New forecast layout! Learn more

10-Day Weather Forecast

Advertisements
Track Severe Weather on mobile